Terminal Aerodrome Forecast
Issued by NWS

Home | Current Version | Previous Version | Text Only | Print | Product List | Glossary On
Versions: 1 2 3 4 5 6 7 8 9 10 11 12 13
000
FTUS45 KPSR 180520
TAFBLH
TAF
KBLH 180520Z 1806/1906 33009KT P6SM SCT250
     FM180800 34012G21KT P6SM FEW250
     FM181500 34012KT P6SM SKC
     FM190000 34006KT P6SM SKC=

USA.gov is the U.S. government's official web portal to all federal, state and local government web resources and services.